createdAt,value
2019-02-05T00:02:12.650Z,15.27
2019-02-05T00:04:42.796Z,14.53
2019-02-05T00:07:12.532Z,15.20
2019-02-05T00:09:42.479Z,14.17
2019-02-05T00:12:12.408Z,10.93
2019-02-05T00:14:42.297Z,13.73
2019-02-05T00:17:12.140Z,11.57
2019-02-05T00:19:42.012Z,13.83
2019-02-05T00:22:11.962Z,14.13
2019-02-05T00:24:43.664Z,10.47
2019-02-05T00:27:13.433Z,12.23
2019-02-05T00:29:43.461Z,10.70
2019-02-05T00:32:13.026Z,9.90
2019-02-05T00:34:42.751Z,11.40
2019-02-05T00:37:12.486Z,9.40
2019-02-05T00:39:45.759Z,10.33
2019-02-05T00:42:15.478Z,10.93
2019-02-05T00:44:45.453Z,11.40
2019-02-05T00:47:15.156Z,10.20
2019-02-05T00:49:44.740Z,10.17
2019-02-05T00:52:14.688Z,10.77
2019-02-05T00:54:44.368Z,10.47
2019-02-05T00:57:13.971Z,10.03
2019-02-05T00:59:43.809Z,8.60
2019-02-05T01:02:13.486Z,8.07
2019-02-05T01:04:43.288Z,8.07
2019-02-05T01:07:12.966Z,6.13
2019-02-05T01:09:42.695Z,7.33
2019-02-05T01:12:12.488Z,6.37
2019-02-05T01:14:42.171Z,5.57
2019-02-05T01:17:11.958Z,6.43
2019-02-05T01:19:41.607Z,4.60
2019-02-05T01:22:11.330Z,7.00
2019-02-05T01:24:41.346Z,4.73
2019-02-05T01:27:10.946Z,6.13
2019-02-05T01:29:40.700Z,5.43
2019-02-05T01:32:10.453Z,6.13
2019-02-05T01:34:40.296Z,5.90
2019-02-05T01:37:10.201Z,5.53
2019-02-05T01:39:40.124Z,5.67
2019-02-05T01:42:10.153Z,4.70
2019-02-05T01:44:39.945Z,4.53
2019-02-05T01:47:09.965Z,5.20
2019-02-05T01:49:39.876Z,5.90
2019-02-05T01:52:09.428Z,5.13
2019-02-05T01:54:39.113Z,4.83
2019-02-05T01:57:09.073Z,5.27
2019-02-05T01:59:38.817Z,4.73
2019-02-05T02:02:09.455Z,4.47
2019-02-05T02:04:39.029Z,4.20
2019-02-05T02:07:09.095Z,3.73
2019-02-05T02:09:39.488Z,4.70
2019-02-05T02:12:09.422Z,3.90
2019-02-05T02:14:39.209Z,4.17
2019-02-05T02:17:09.096Z,4.73
2019-02-05T02:19:39.601Z,4.50
2019-02-05T02:22:09.488Z,5.13
2019-02-05T02:24:39.083Z,5.10
2019-02-05T02:27:11.134Z,5.53
2019-02-05T02:29:40.956Z,5.50
2019-02-05T02:32:11.067Z,5.40
2019-02-05T02:34:40.742Z,5.50
2019-02-05T02:37:10.287Z,6.00
2019-02-05T02:39:40.322Z,5.30
2019-02-05T02:42:10.484Z,4.03
2019-02-05T02:44:40.260Z,3.77
2019-02-05T02:47:10.178Z,4.70
2019-02-05T02:49:40.059Z,4.70
2019-02-05T02:52:09.901Z,5.50
2019-02-05T02:54:39.505Z,5.80
2019-02-05T02:57:09.193Z,5.17
2019-02-05T02:59:41.753Z,4.80
2019-02-05T03:02:11.868Z,5.90
2019-02-05T03:04:41.440Z,5.00
2019-02-05T03:07:11.124Z,5.63
2019-02-05T03:09:41.027Z,5.70
2019-02-05T03:12:10.824Z,5.67
2019-02-05T03:14:40.393Z,5.50
2019-02-05T03:17:10.457Z,3.83
2019-02-05T03:19:40.221Z,6.20
2019-02-05T03:22:10.057Z,6.03
2019-02-05T03:24:39.846Z,5.87
2019-02-05T03:27:17.271Z,5.00
2019-02-05T03:29:41.216Z,5.43
2019-02-05T03:32:11.306Z,5.47
2019-02-05T03:34:41.035Z,5.80
2019-02-05T03:37:10.836Z,5.93
2019-02-05T03:39:40.667Z,6.40
2019-02-05T03:42:10.303Z,5.87
2019-02-05T03:44:39.945Z,5.80
2019-02-05T03:47:09.938Z,5.37
2019-02-05T03:49:39.928Z,5.20
2019-02-05T03:52:18.182Z,5.03
2019-02-05T03:55:47.443Z,4.70
2019-02-05T03:58:39.554Z,5.03
2019-02-05T04:01:45.061Z,4.53
2019-02-05T04:04:52.875Z,4.80
2019-02-05T04:08:12.030Z,4.20
2019-02-05T04:11:21.285Z,4.67
2019-02-05T04:14:35.532Z,4.70
2019-02-05T04:17:27.911Z,2.87
2019-02-05T04:20:26.531Z,4.57
2019-02-05T04:23:38.480Z,4.17
2019-02-05T04:26:48.778Z,4.47
2019-02-05T04:30:00.560Z,3.83
2019-02-05T04:32:58.750Z,3.23
2019-02-05T04:35:58.167Z,3.73
2019-02-05T04:39:11.451Z,3.47
2019-02-05T04:42:21.187Z,3.47
2019-02-05T04:45:53.051Z,2.97
2019-02-05T04:49:00.778Z,3.07
2019-02-05T04:52:00.609Z,3.73
2019-02-05T04:54:53.036Z,3.43
2019-02-05T04:57:36.784Z,3.57
2019-02-05T05:00:49.143Z,3.03
2019-02-05T05:04:11.535Z,3.23
2019-02-05T05:06:59.563Z,3.37
2019-02-05T05:09:46.989Z,4.00
2019-02-05T05:12:16.699Z,3.63
2019-02-05T05:14:46.448Z,3.37
2019-02-05T05:17:16.507Z,4.00
2019-02-05T05:19:46.361Z,3.57
2019-02-05T05:22:16.471Z,3.57
2019-02-05T05:24:46.311Z,2.77
2019-02-05T05:27:17.636Z,3.90
2019-02-05T05:29:47.624Z,3.27
2019-02-05T05:32:18.035Z,3.07
2019-02-05T05:34:47.875Z,3.80
2019-02-05T05:37:16.722Z,3.50
2019-02-05T05:39:46.356Z,3.93
2019-02-05T05:42:16.032Z,3.50
2019-02-05T05:44:45.806Z,3.17
2019-02-05T05:47:15.952Z,3.67
2019-02-05T05:49:45.655Z,2.97
2019-02-05T05:52:16.082Z,2.73
2019-02-05T05:54:45.692Z,3.07
2019-02-05T05:57:18.693Z,3.77
2019-02-05T05:59:46.963Z,4.63
2019-02-05T06:02:17.512Z,3.97
2019-02-05T06:04:47.095Z,4.03
2019-02-05T06:07:16.656Z,4.40
2019-02-05T06:09:46.588Z,4.30
2019-02-05T06:12:16.239Z,4.50
2019-02-05T06:14:46.151Z,4.63
2019-02-05T06:17:15.750Z,4.20
2019-02-05T06:19:47.476Z,5.13
2019-02-05T06:22:17.030Z,4.67
2019-02-05T06:24:46.807Z,3.80
2019-02-05T06:27:16.405Z,2.70
2019-02-05T06:29:46.531Z,2.47
2019-02-05T06:32:16.107Z,1.70
2019-02-05T06:34:46.921Z,3.17
2019-02-05T06:37:16.527Z,2.17
2019-02-05T06:39:49.704Z,2.40
2019-02-05T06:42:23.817Z,2.27
2019-02-05T06:44:58.191Z,2.50
2019-02-05T06:47:27.715Z,1.60
2019-02-05T06:49:57.782Z,1.23
2019-02-05T06:52:27.620Z,1.00
2019-02-05T06:54:57.376Z,1.00
2019-02-05T06:57:27.207Z,1.00
2019-02-05T06:59:56.751Z,1.10
2019-02-05T07:02:26.712Z,1.30
2019-02-05T07:04:56.425Z,17.97
2019-02-05T07:07:25.980Z,1.17
2019-02-05T07:09:55.843Z,1.33
2019-02-05T07:12:25.840Z,1.13
2019-02-05T07:14:55.494Z,1.10
2019-02-05T07:17:25.339Z,1.10
2019-02-05T07:19:55.122Z,1.30
2019-02-05T07:22:24.969Z,1.43
2019-02-05T07:24:54.717Z,1.30
2019-02-05T07:27:24.607Z,1.00
2019-02-05T07:29:54.388Z,1.37
2019-02-05T07:32:25.426Z,1.47
2019-02-05T07:34:54.950Z,1.80
2019-02-05T07:37:24.496Z,1.50
2019-02-05T07:39:54.397Z,1.57
2019-02-05T07:42:25.628Z,2.80
2019-02-05T07:44:55.287Z,1.73
2019-02-05T07:47:24.964Z,2.00
2019-02-05T07:49:54.534Z,2.10
2019-02-05T07:52:24.167Z,2.00
2019-02-05T07:54:56.773Z,1.90
2019-02-05T07:57:26.542Z,2.50
2019-02-05T07:59:56.225Z,2.10
2019-02-05T08:02:26.035Z,1.63
2019-02-05T08:04:55.729Z,2.20
2019-02-05T08:07:26.777Z,1.70
2019-02-05T08:09:56.506Z,2.60
2019-02-05T08:12:26.550Z,3.57
2019-02-05T08:14:56.259Z,3.73
2019-02-05T08:17:25.981Z,3.70
2019-02-05T08:19:55.850Z,3.43
2019-02-05T08:22:25.424Z,3.63
2019-02-05T08:24:55.230Z,3.40
2019-02-05T08:27:25.396Z,3.10
2019-02-05T08:29:55.331Z,3.10
2019-02-05T08:32:24.971Z,2.67
2019-02-05T08:34:55.285Z,2.97
2019-02-05T08:37:24.884Z,4.27
2019-02-05T08:39:54.753Z,3.20
2019-02-05T08:42:33.235Z,2.50
2019-02-05T08:45:02.998Z,2.47
2019-02-05T08:47:32.707Z,3.23
2019-02-05T08:50:02.688Z,2.10
2019-02-05T08:52:32.445Z,2.00
2019-02-05T08:55:02.070Z,1.73
2019-02-05T08:57:31.736Z,2.30
2019-02-05T09:00:01.600Z,2.03
2019-02-05T09:02:31.232Z,1.80
2019-02-05T09:05:00.887Z,2.50
2019-02-05T09:07:30.360Z,2.10
2019-02-05T09:10:00.414Z,2.17
2019-02-05T09:12:30.393Z,3.00
2019-02-05T09:15:00.069Z,2.07
2019-02-05T09:17:29.693Z,2.90
2019-02-05T09:19:59.292Z,3.77
2019-02-05T09:22:29.177Z,3.37
2019-02-05T09:24:58.718Z,3.70
2019-02-05T09:27:28.720Z,3.00
2019-02-05T09:29:58.531Z,3.57
2019-02-05T09:32:34.936Z,3.10
2019-02-05T09:34:59.513Z,2.77
2019-02-05T09:37:29.263Z,3.30
2019-02-05T09:39:59.027Z,3.10
2019-02-05T09:42:28.616Z,3.50
2019-02-05T09:44:58.329Z,3.70
2019-02-05T09:47:27.998Z,3.10
2019-02-05T09:49:57.619Z,3.67
2019-02-05T09:52:27.401Z,3.90
2019-02-05T09:54:57.107Z,3.20
2019-02-05T09:57:26.785Z,2.80
2019-02-05T09:59:56.731Z,3.07
2019-02-05T10:02:26.698Z,3.62
2019-02-05T10:04:56.735Z,3.33
2019-02-05T10:07:27.040Z,3.07
2019-02-05T10:09:57.854Z,3.17
2019-02-05T10:12:28.306Z,3.45
2019-02-05T10:14:58.575Z,3.27
2019-02-05T10:17:28.916Z,3.67
2019-02-05T10:20:01.329Z,2.90
2019-02-05T10:22:31.888Z,2.30
2019-02-05T10:25:02.668Z,2.23
2019-02-05T10:27:32.616Z,2.30
2019-02-05T10:30:02.993Z,2.90
2019-02-05T10:32:32.920Z,2.90
2019-02-05T10:35:02.802Z,2.47
2019-02-05T10:37:32.890Z,2.97
2019-02-05T10:40:03.216Z,2.40
2019-02-05T10:42:33.151Z,2.27
2019-02-05T10:45:03.654Z,2.40
2019-02-05T10:47:33.767Z,3.17
2019-02-05T10:50:03.948Z,2.60
2019-02-05T10:52:33.707Z,2.80
2019-02-05T10:55:28.433Z,2.07
2019-02-05T10:57:58.586Z,4.60
2019-02-05T11:00:31.962Z,6.10
2019-02-05T11:03:03.150Z,5.13
2019-02-05T11:05:33.418Z,5.20
2019-02-05T11:08:03.353Z,4.57
2019-02-05T11:10:33.313Z,5.70
2019-02-05T11:13:03.707Z,4.43
2019-02-05T11:15:34.606Z,4.23
2019-02-05T11:18:06.086Z,4.67
2019-02-05T11:20:36.218Z,5.17
2019-02-05T11:23:06.652Z,5.10
2019-02-05T11:25:36.539Z,3.70
2019-02-05T11:28:06.888Z,4.77
2019-02-05T11:30:39.447Z,4.80
2019-02-05T11:33:10.224Z,3.60
2019-02-05T11:35:40.295Z,4.03
2019-02-05T11:38:11.730Z,4.10
2019-02-05T11:40:42.016Z,3.53
2019-02-05T11:43:12.631Z,3.57
2019-02-05T11:45:42.898Z,3.40
2019-02-05T11:48:16.365Z,3.67
2019-02-05T11:50:46.135Z,3.43
2019-02-05T11:53:16.272Z,3.47
2019-02-05T11:55:46.495Z,3.80
2019-02-05T11:58:16.900Z,3.80
2019-02-05T12:01:11.981Z,4.20
2019-02-05T12:03:41.909Z,3.33
2019-02-05T12:06:12.109Z,3.83
2019-02-05T12:08:42.430Z,2.93
2019-02-05T12:11:12.645Z,3.20
2019-02-05T12:13:43.168Z,2.93
2019-02-05T12:16:13.211Z,2.83
2019-02-05T12:18:43.332Z,2.50
2019-02-05T12:21:13.676Z,3.00
2019-02-05T12:23:43.671Z,3.23
2019-02-05T12:26:13.953Z,5.67
2019-02-05T12:28:43.946Z,3.93
2019-02-05T12:31:14.094Z,4.17
2019-02-05T12:33:44.466Z,7.50
2019-02-05T12:36:14.993Z,3.03
2019-02-05T12:38:45.062Z,3.40
2019-02-05T12:41:15.152Z,3.10
2019-02-05T12:43:45.208Z,2.90
2019-02-05T12:46:15.697Z,3.40
2019-02-05T12:48:45.701Z,2.77
2019-02-05T12:51:15.690Z,2.70
2019-02-05T12:53:45.643Z,2.97
2019-02-05T12:56:15.502Z,2.53
2019-02-05T12:58:45.703Z,3.00
2019-02-05T13:01:15.749Z,2.90
2019-02-05T13:03:45.546Z,3.20
2019-02-05T13:06:15.401Z,2.90
2019-02-05T13:08:45.588Z,3.13
2019-02-05T13:11:15.514Z,3.13
2019-02-05T13:13:46.052Z,4.60
2019-02-05T13:16:16.021Z,2.97
2019-02-05T13:18:45.872Z,3.07
2019-02-05T13:21:15.970Z,3.17
2019-02-05T13:23:45.762Z,2.83
2019-02-05T13:26:15.833Z,2.50
2019-02-05T13:28:46.478Z,2.33
2019-02-05T13:31:16.487Z,2.70
2019-02-05T13:33:46.533Z,2.67
2019-02-05T13:36:16.866Z,3.00
2019-02-05T13:38:46.832Z,3.13
2019-02-05T13:41:17.782Z,3.10
2019-02-05T13:43:47.997Z,3.10
2019-02-05T13:46:17.989Z,2.50
2019-02-05T13:48:48.125Z,2.47
2019-02-05T13:51:18.309Z,2.63
2019-02-05T13:53:48.397Z,2.17
2019-02-05T13:56:18.723Z,2.60
2019-02-05T13:58:49.003Z,2.40
2019-02-05T14:01:20.364Z,2.17
2019-02-05T14:03:50.621Z,2.93
2019-02-05T14:06:20.680Z,2.67
2019-02-05T14:08:50.753Z,2.90
2019-02-05T14:11:21.614Z,2.63
2019-02-05T14:13:51.735Z,3.00
2019-02-05T14:16:21.897Z,2.80
2019-02-05T14:18:55.308Z,2.53
2019-02-05T14:21:23.825Z,2.40
2019-02-05T14:23:54.135Z,2.10
2019-02-05T14:26:24.091Z,2.60
2019-02-05T14:28:54.390Z,2.60
2019-02-05T14:31:31.131Z,2.13
2019-02-05T14:33:56.484Z,2.47
2019-02-05T14:36:26.523Z,2.63
2019-02-05T14:38:56.996Z,2.60
2019-02-05T14:41:27.165Z,3.10
2019-02-05T14:43:57.405Z,2.87
2019-02-05T14:46:27.484Z,2.93
2019-02-05T14:48:57.487Z,2.87
2019-02-05T14:51:27.992Z,2.90
2019-02-05T14:53:57.747Z,2.60
2019-02-05T14:56:27.725Z,2.87
2019-02-05T14:58:58.239Z,2.70
2019-02-05T15:01:28.181Z,3.10
2019-02-05T15:03:57.970Z,2.80
2019-02-05T15:06:27.890Z,2.97
2019-02-05T15:08:57.788Z,2.50
2019-02-05T15:11:27.674Z,2.70
2019-02-05T15:13:57.897Z,4.27
2019-02-05T15:16:27.716Z,5.53
2019-02-05T15:18:57.768Z,3.20
2019-02-05T15:21:27.695Z,3.07
2019-02-05T15:23:57.761Z,3.50
2019-02-05T15:26:27.685Z,3.20
2019-02-05T15:28:58.271Z,2.53
2019-02-05T15:31:28.495Z,2.50
2019-02-05T15:34:15.095Z,3.23
2019-02-05T15:36:47.621Z,3.03
2019-02-05T15:39:18.095Z,2.33
2019-02-05T15:41:48.181Z,2.60
2019-02-05T15:44:18.169Z,2.50
2019-02-05T15:46:48.573Z,2.90
2019-02-05T15:49:18.592Z,3.27
2019-02-05T15:51:48.651Z,3.10
2019-02-05T15:54:18.898Z,4.10
2019-02-05T15:56:49.460Z,3.03
2019-02-05T15:59:19.682Z,3.30
2019-02-05T16:01:50.016Z,3.13
2019-02-05T16:04:20.185Z,3.97
2019-02-05T16:06:50.189Z,3.30
2019-02-05T16:09:20.555Z,3.13
2019-02-05T16:11:50.816Z,4.50
2019-02-05T16:14:20.857Z,3.30
2019-02-05T16:16:51.050Z,3.37
2019-02-05T16:19:20.821Z,3.47
2019-02-05T16:21:51.529Z,3.40
2019-02-05T16:24:21.881Z,3.40
2019-02-05T16:26:52.028Z,3.80
2019-02-05T16:29:22.611Z,6.00
2019-02-05T16:31:52.768Z,4.90
2019-02-05T16:34:23.074Z,34.40
2019-02-05T16:36:54.220Z,6.47
2019-02-05T16:39:24.294Z,4.33
2019-02-05T16:41:54.117Z,8.63
2019-02-05T16:44:24.926Z,3.05
2019-02-05T16:46:54.949Z,3.05
2019-02-05T16:49:26.213Z,2.40
2019-02-05T16:51:56.340Z,4.23
2019-02-05T16:54:26.802Z,4.13
2019-02-05T16:56:57.212Z,3.57
2019-02-05T16:59:27.378Z,2.93
2019-02-05T17:01:57.488Z,2.77
2019-02-05T17:04:27.918Z,3.07
2019-02-05T17:06:58.265Z,3.20
2019-02-05T17:09:28.554Z,2.60
2019-02-05T17:11:58.847Z,2.87
2019-02-05T17:14:29.105Z,2.62
2019-02-05T17:16:59.085Z,3.57
2019-02-05T17:19:31.829Z,2.60
2019-02-05T17:22:00.879Z,3.10
2019-02-05T17:24:30.918Z,2.63
2019-02-05T17:27:01.053Z,2.60
2019-02-05T17:29:31.097Z,2.60
2019-02-05T17:32:01.628Z,3.07
2019-02-05T17:34:31.499Z,3.07
2019-02-05T17:37:01.510Z,3.10
2019-02-05T17:39:31.798Z,2.65
2019-02-05T17:42:02.018Z,2.90
2019-02-05T17:44:32.559Z,2.50
2019-02-05T17:47:02.720Z,2.67
2019-02-05T17:49:33.200Z,2.70
2019-02-05T17:52:03.539Z,2.60
2019-02-05T17:54:33.613Z,2.37
2019-02-05T17:57:04.208Z,2.43
2019-02-05T17:59:34.234Z,2.40
2019-02-05T18:02:05.218Z,7.67
2019-02-05T18:04:35.168Z,3.27
2019-02-05T18:07:05.404Z,2.70
2019-02-05T18:09:35.611Z,2.30
2019-02-05T18:12:06.223Z,2.70
2019-02-05T18:14:36.658Z,2.90
2019-02-05T18:17:07.387Z,2.50
2019-02-05T18:19:37.507Z,2.63
2019-02-05T18:22:08.174Z,2.80
2019-02-05T18:24:38.391Z,2.70
2019-02-05T18:27:08.323Z,2.90
2019-02-05T18:29:38.344Z,2.53
2019-02-05T18:32:10.143Z,2.83
2019-02-05T18:34:40.078Z,2.97
2019-02-05T18:37:10.047Z,2.73
2019-02-05T18:39:40.391Z,3.30
2019-02-05T18:42:10.433Z,2.50
2019-02-05T18:44:41.240Z,4.23
2019-02-05T18:47:14.215Z,3.60
2019-02-05T18:49:43.243Z,3.93
2019-02-05T18:52:13.176Z,3.60
2019-02-05T18:54:42.909Z,3.73
2019-02-05T18:57:12.753Z,4.00
2019-02-05T18:59:43.012Z,4.27
2019-02-05T19:02:12.743Z,3.70
2019-02-05T19:04:42.884Z,4.37
2019-02-05T19:07:12.705Z,3.50
2019-02-05T19:09:42.465Z,4.40
2019-02-05T19:12:12.438Z,4.50
2019-02-05T19:14:42.452Z,4.10
2019-02-05T19:17:12.450Z,3.57
2019-02-05T19:19:42.718Z,4.73
2019-02-05T19:22:12.434Z,4.33
2019-02-05T19:24:47.801Z,4.10
2019-02-05T19:27:17.837Z,4.53
2019-02-05T19:29:48.104Z,3.50
2019-02-05T19:32:21.279Z,4.10
2019-02-05T19:34:51.074Z,3.70
2019-02-05T19:37:20.926Z,3.45
2019-02-05T19:39:50.754Z,3.53
2019-02-05T19:42:20.452Z,4.70
2019-02-05T19:45:01.054Z,11.53
2019-02-05T19:47:33.435Z,12.30
2019-02-05T19:50:04.042Z,7.77
2019-02-05T19:52:34.355Z,4.00
2019-02-05T19:55:04.181Z,4.13
2019-02-05T19:57:34.068Z,3.50
2019-02-05T20:00:05.554Z,3.53
2019-02-05T20:02:35.503Z,3.02
2019-02-05T20:05:06.611Z,3.35
2019-02-05T20:07:36.770Z,3.70
2019-02-05T20:10:11.669Z,3.00
2019-02-05T20:12:48.249Z,3.40
2019-02-05T20:15:19.800Z,3.73
2019-02-05T20:17:50.128Z,3.63
2019-02-05T20:20:20.074Z,3.70
2019-02-05T20:22:50.190Z,3.43
2019-02-05T20:25:20.297Z,3.57
2019-02-05T20:27:50.412Z,3.57
2019-02-05T20:30:20.485Z,3.07
2019-02-05T20:32:50.539Z,4.10
2019-02-05T20:35:20.180Z,3.23
2019-02-05T20:37:50.468Z,3.30
2019-02-05T20:40:20.854Z,3.27
2019-02-05T20:42:50.919Z,3.27
2019-02-05T20:45:21.137Z,3.60
2019-02-05T20:47:50.963Z,3.67
2019-02-05T20:50:20.763Z,3.20
2019-02-05T20:52:50.800Z,3.77
2019-02-05T20:55:20.902Z,3.80
2019-02-05T20:57:51.112Z,3.40
2019-02-05T21:00:22.174Z,3.63
2019-02-05T21:02:52.577Z,3.50
2019-02-05T21:05:22.698Z,3.90
2019-02-05T21:07:53.153Z,3.50
2019-02-05T21:10:24.327Z,3.53
2019-02-05T21:12:54.696Z,3.80
2019-02-05T21:15:25.539Z,3.52
2019-02-05T21:17:55.719Z,4.07
2019-02-05T21:20:29.190Z,4.30
2019-02-05T21:22:57.940Z,4.47
2019-02-05T21:25:28.170Z,4.33
2019-02-05T21:27:58.816Z,4.10
2019-02-05T21:30:29.401Z,4.57
2019-02-05T21:32:59.543Z,4.67
2019-02-05T21:35:29.917Z,4.20
2019-02-05T21:38:00.460Z,4.10
2019-02-05T21:40:31.605Z,4.43
2019-02-05T21:43:01.968Z,4.13
2019-02-05T21:45:33.032Z,3.93
2019-02-05T21:48:03.099Z,4.17
2019-02-05T21:50:33.287Z,3.80
2019-02-05T21:53:04.462Z,4.10
2019-02-05T21:55:34.373Z,3.90
2019-02-05T21:58:04.421Z,4.10
2019-02-05T22:00:34.674Z,3.85
2019-02-05T22:03:05.173Z,4.00
2019-02-05T22:05:35.312Z,4.00
2019-02-05T22:08:08.803Z,4.13
2019-02-05T22:10:40.166Z,4.00
2019-02-05T22:13:10.021Z,4.17
2019-02-05T22:15:40.424Z,3.90
2019-02-05T22:18:11.932Z,3.93
2019-02-05T22:20:42.124Z,3.10
2019-02-05T22:23:12.390Z,3.50
2019-02-05T22:25:42.410Z,3.50
2019-02-05T22:28:12.364Z,3.77
2019-02-05T22:30:42.679Z,3.33
2019-02-05T22:33:12.479Z,3.23
2019-02-05T22:35:42.407Z,2.90
2019-02-05T22:38:12.594Z,2.60
2019-02-05T22:40:42.468Z,3.03
2019-02-05T22:43:12.576Z,3.17
2019-02-05T22:45:42.525Z,2.70
2019-02-05T22:48:12.509Z,2.77
2019-02-05T22:50:42.714Z,2.70
2019-02-05T22:53:12.781Z,3.10
2019-02-05T22:55:42.698Z,2.77
2019-02-05T22:58:12.587Z,3.33
2019-02-05T23:01:05.924Z,2.97
2019-02-05T23:03:39.449Z,3.10
2019-02-05T23:06:19.598Z,3.07
2019-02-05T23:08:49.429Z,3.00
2019-02-05T23:12:04.092Z,2.80
2019-02-05T23:14:33.739Z,3.10
2019-02-05T23:17:04.179Z,2.90
2019-02-05T23:19:34.435Z,2.80
2019-02-05T23:22:04.582Z,2.80
2019-02-05T23:24:34.896Z,3.30
2019-02-05T23:27:05.029Z,4.10
2019-02-05T23:29:34.642Z,3.40
2019-02-05T23:32:05.069Z,3.30
2019-02-05T23:34:34.826Z,2.90
2019-02-05T23:37:04.735Z,2.70
2019-02-05T23:39:34.349Z,2.60
2019-02-05T23:42:04.686Z,2.80
2019-02-05T23:44:34.289Z,2.83
2019-02-05T23:47:04.410Z,2.60
2019-02-05T23:49:34.248Z,2.50
2019-02-05T23:52:04.259Z,2.90
2019-02-05T23:54:33.975Z,2.67
2019-02-05T23:57:03.944Z,2.80
2019-02-05T23:59:33.735Z,2.63
